Time;durP1;ratioP1;P1;durP2;ratioP2;P2;SDS_P1;SDS_P2;PMS_P1;PMS_P2;Temp;Humidity;BMP_temperature;BMP_pressure;BME280_temperature;BME280_humidity;BME280_pressure;Samples;Min_cycle;Max_cycle;Signal;HPM_P1;HPM_P2
2023/02/09 00:01:17;;;;;;;13.23;2.20;;;5.20;94.10;;;5.74;42.07;102879.81;6136103;22;97193;-57
2023/02/09 00:03:43;;;;;;;6.10;3.00;;;5.10;93.30;;;5.55;40.58;102874.22;6142240;22;97841;-60
2023/02/09 00:06:14;;;;;;;5.57;2.57;;;5.00;92.40;;;5.38;41.90;102867.78;6138200;22;109905;-62
2023/02/09 00:08:40;;;;;;;8.27;2.37;;;4.80;93.60;;;5.32;44.61;102867.63;6140338;22;99659;-55
2023/02/09 00:11:09;;;;;;;6.60;3.30;;;4.80;94.50;;;5.25;44.37;102870.97;6142747;22;97199;-60
2023/02/09 00:13:36;;;;;;;4.93;2.33;;;4.70;94.80;;;5.10;43.00;102870.66;6138110;22;97582;-61
2023/02/09 00:16:03;;;;;;;6.07;3.23;;;4.50;94.80;;;5.16;45.28;102865.53;6139429;22;97756;-63
2023/02/09 00:18:32;;;;;;;4.93;2.03;;;4.60;95.60;;;5.14;43.89;102867.25;6110701;22;98067;-60
2023/02/09 00:21:05;;;;;;;4.87;2.30;;;4.60;94.80;;;5.12;44.02;102869.81;6114656;22;97213;-55
2023/02/09 00:23:34;;;;;;;5.10;2.83;;;4.60;94.70;;;5.05;44.82;102860.94;6110083;22;97352;-55
2023/02/09 00:26:09;;;;;;;2.70;2.10;;;4.50;95.20;;;5.00;45.46;102870.44;6114786;22;97452;-61
2023/02/09 00:28:35;;;;;;;3.13;1.90;;;4.40;95.60;;;5.06;45.91;102860.13;6137032;22;100551;-54
2023/02/09 00:31:06;;;;;;;6.17;2.40;;;4.50;95.50;;;5.03;44.36;102859.16;6116185;22;96632;-57
2023/02/09 00:33:32;;;;;;;3.33;2.20;;;4.40;95.00;;;4.98;43.72;102850.31;6137512;22;97026;-61
2023/02/09 00:35:58;;;;;;;3.57;1.97;;;4.40;94.80;;;4.93;43.88;102854.56;6143826;22;97179;-59
2023/02/09 00:38:24;;;;;;;4.20;2.30;;;4.40;95.20;;;4.88;43.99;102849.22;6139330;22;103494;-58
2023/02/09 00:40:51;;;;;;;5.67;2.17;;;4.40;95.30;;;4.89;44.90;102848.38;6138069;22;101041;-60
2023/02/09 00:43:17;;;;;;;6.67;2.97;;;4.40;95.90;;;4.73;42.84;102854.09;6110772;22;100908;-60
2023/02/09 00:45:42;;;;;;;4.50;2.17;;;4.30;95.60;;;4.63;42.33;102862.56;6143760;22;102442;-59
2023/02/09 00:48:08;;;;;;;7.37;1.93;;;4.30;95.20;;;4.65;45.37;102866.13;6114992;22;99940;-59
2023/02/09 00:50:34;;;;;;;4.37;2.60;;;4.30;96.00;;;4.62;44.77;102860.81;6140002;22;97270;-61
2023/02/09 00:53:00;;;;;;;6.17;2.27;;;4.20;95.40;;;4.69;47.50;102854.88;6144392;22;96777;-63
2023/02/09 00:55:25;;;;;;;9.83;3.03;;;4.20;96.80;;;4.70;45.89;102860.16;6137378;22;97477;-60
2023/02/09 00:57:51;;;;;;;10.13;2.97;;;4.20;96.20;;;4.71;48.89;102863.66;6116165;22;106136;-60
2023/02/09 01:00:19;;;;;;;4.10;2.73;;;4.10;96.70;;;4.99;51.67;102863.44;6125572;22;97403;-61
2023/02/09 01:02:45;;;;;;;6.97;3.87;;;4.30;97.30;;;5.17;47.68;102859.44;6155701;22;97228;-58
2023/02/09 01:05:10;;;;;;;4.23;2.53;;;4.50;96.70;;;5.02;43.96;102852.16;6139391;22;97142;-61
2023/02/09 01:07:36;;;;;;;2.70;2.20;;;4.40;95.30;;;5.10;47.87;102850.59;6153246;22;97057;-59
2023/02/09 01:10:02;;;;;;;4.03;2.13;;;4.40;96.00;;;5.51;53.88;102859.31;6155263;22;97152;-59
2023/02/09 01:12:29;;;;;;;5.63;2.07;;;4.70;98.20;;;5.86;53.85;102856.47;6152215;22;104097;-59
2023/02/09 01:14:55;;;;;;;2.30;1.33;;;5.00;99.60;;;6.32;53.20;102832.00;6130485;22;97631;-57
2023/02/09 01:17:22;;;;;;;4.60;2.50;;;5.40;99.90;;;6.46;45.81;102845.31;6152272;22;97545;-61
2023/02/09 01:19:52;;;;;;;2.33;1.67;;;5.60;96.00;;;6.58;48.43;102845.53;6155539;22;97095;-59
2023/02/09 01:22:18;;;;;;;3.80;2.43;;;5.60;96.50;;;6.59;43.86;102842.03;6151549;22;97284;-61
2023/02/09 01:24:43;;;;;;;5.17;2.63;;;5.60;95.70;;;6.63;42.91;102850.81;6154830;22;98027;-53
2023/02/09 01:27:09;;;;;;;3.63;2.27;;;5.60;94.60;;;6.61;43.84;102850.81;6151898;22;115654;-57
2023/02/09 01:29:35;;;;;;;4.60;2.77;;;5.60;94.50;;;6.69;46.99;102846.59;6155723;22;118492;-61
2023/02/09 01:32:03;;;;;;;6.07;3.33;;;5.70;95.20;;;6.72;46.12;102838.75;6155918;22;97261;-60
2023/02/09 01:34:28;;;;;;;5.87;2.87;;;5.70;94.80;;;6.64;42.61;102840.34;6152382;22;98791;-57
2023/02/09 01:36:54;;;;;;;4.97;2.53;;;5.70;94.70;;;6.55;47.23;102845.47;6128520;22;102817;-55
2023/02/09 01:39:20;;;;;;;4.47;2.47;;;5.60;95.00;;;6.58;48.22;102837.66;6152417;22;96953;-58
2023/02/09 01:41:46;;;;;;;4.20;2.33;;;5.60;95.30;;;6.47;48.30;102847.09;6157716;22;97045;-59
2023/02/09 01:44:15;;;;;;;3.87;2.47;;;5.50;95.80;;;6.62;45.21;102834.22;6123298;22;100945;-59
2023/02/09 01:46:42;;;;;;;7.73;2.90;;;5.60;95.90;;;6.76;49.63;102832.69;6157975;22;97570;-60
2023/02/09 01:49:19;;;;;;;4.10;2.30;;;5.70;96.10;;;6.98;44.79;102827.75;6132035;22;97403;-58
2023/02/09 01:51:57;;;;;;;5.30;2.43;;;6.00;96.30;;;7.17;47.82;102827.13;6126049;22;97115;-60
2023/02/09 01:54:28;;;;;;;3.60;2.07;;;6.10;95.40;;;7.15;49.69;102828.84;6151827;22;97513;-56
2023/02/09 01:57:13;;;;;;;4.13;2.50;;;6.10;96.30;;;7.29;47.12;102835.16;6130528;22;96723;-62
2023/02/09 01:59:43;;;;;;;5.57;2.50;;;6.20;94.90;;;7.39;48.41;102834.41;6153674;22;97126;-63
2023/02/09 02:02:10;;;;;;;3.90;2.13;;;6.30;95.50;;;7.65;48.76;102828.56;6153636;22;97203;-59
2023/02/09 02:04:37;;;;;;;3.13;1.63;;;6.60;96.40;;;8.02;48.92;102822.81;6130017;22;108349;-61
2023/02/09 02:07:21;;;;;;;4.83;2.17;;;7.00;99.10;;;8.21;47.95;102833.47;6156446;22;97456;-58
2023/02/09 02:09:48;;;;;;;2.83;1.73;;;7.20;94.80;;;8.44;47.75;102821.44;6125435;22;97455;-62
2023/02/09 02:12:14;;;;;;;6.57;3.03;;;7.40;96.80;;;8.38;44.84;102821.38;6126882;22;97371;-61
2023/02/09 02:14:41;;;;;;;6.77;2.27;;;7.40;93.80;;;8.43;46.95;102819.69;6156516;22;105252;-62
2023/02/09 02:17:33;;;;;;;4.87;2.67;;;7.30;94.30;;;8.43;45.97;102824.94;6157056;22;98748;-58
2023/02/09 02:20:39;;;;;;;2.80;2.30;;;7.30;95.00;;;8.48;43.84;102817.06;6154152;22;97038;-59
2023/02/09 02:23:51;;;;;;;4.67;2.40;;;7.40;95.00;;;8.43;46.10;102814.44;6138236;22;96910;-59
2023/02/09 02:27:03;;;;;;;6.23;2.67;;;7.30;94.80;;;8.47;42.37;102810.94;6148285;22;102158;-59
2023/02/09 02:30:05;;;;;;;6.93;3.27;;;7.50;93.90;;;8.43;41.41;102809.16;6006006;23;98081;-58
2023/02/09 02:32:49;;;;;;;4.93;2.97;;;7.50;92.60;;;8.50;46.41;102816.22;6031547;23;97026;-62
2023/02/09 02:35:41;;;;;;;5.43;2.90;;;7.50;91.70;;;8.58;46.13;102818.91;6133101;22;96960;-56
2023/02/09 02:38:52;;;;;;;6.53;2.73;;;7.70;94.40;;;8.46;39.72;102824.97;6155055;22;97110;-61
2023/02/09 02:44:36;;;;;;;5.20;2.87;;;7.50;92.70;;;8.34;42.79;102819.59;6153463;22;97146;-59
2023/02/09 02:47:06;;;;;;;5.47;3.20;;;7.40;91.20;;;8.07;38.18;102815.84;6156120;22;97731;-59
2023/02/09 02:49:44;;;;;;;6.30;2.93;;;7.10;91.60;;;7.91;40.69;102819.19;6151830;22;98564;-60
2023/02/09 02:52:11;;;;;;;5.50;2.63;;;7.00;92.40;;;7.85;47.73;102828.78;6126384;22;97056;-58
2023/02/09 02:54:56;;;;;;;5.23;2.80;;;6.80;94.90;;;7.75;45.66;102822.53;6156463;22;97210;-60
2023/02/09 02:57:29;;;;;;;6.30;2.67;;;6.80;93.50;;;7.85;47.88;102828.78;6125640;22;97256;-62
2023/02/09 03:00:08;;;;;;;5.63;2.90;;;6.90;97.30;;;7.85;47.09;102828.78;6129078;22;97783;-60
2023/02/09 03:02:41;;;;;;;5.63;3.20;;;6.90;95.10;;;7.91;42.75;102824.44;6125277;22;101990;-59
2023/02/09 03:05:08;;;;;;;6.33;3.10;;;7.00;94.00;;;7.83;43.14;102827.88;6128679;22;96818;-57
2023/02/09 03:07:34;;;;;;;5.47;3.67;;;6.90;92.60;;;7.88;42.08;102826.19;6152907;22;97615;-57
2023/02/09 03:10:00;;;;;;;3.93;2.27;;;6.90;92.70;;;7.91;47.54;102824.44;6157002;22;98413;-59
2023/02/09 03:12:59;;;;;;;5.73;2.90;;;6.80;94.70;;;7.87;46.28;102821.78;6152993;22;104110;-61
2023/02/09 03:16:21;;;;;;;5.87;3.33;;;6.80;92.50;;;7.55;40.76;102824.09;6124760;22;96895;-60
2023/02/09 03:18:50;;;;;;;8.63;3.57;;;6.60;92.80;;;7.19;38.98;102820.16;6067362;22;97298;-59
2023/02/09 03:21:22;;;;;;;6.67;3.03;;;6.30;92.40;;;7.19;45.37;102814.00;6152245;22;97507;-57
2023/02/09 03:24:20;;;;;;;4.80;2.73;;;6.30;92.90;;;7.10;40.71;102820.03;6128990;22;97641;-62
2023/02/09 03:27:04;;;;;;;5.00;3.30;;;6.20;93.50;;;7.02;41.61;102816.41;6125938;22;97452;-58
2023/02/09 03:29:32;;;;;;;5.67;2.10;;;6.10;93.40;;;7.09;46.43;102816.53;6153908;22;97559;-59
2023/02/09 03:31:58;;;;;;;4.30;2.87;;;6.10;94.30;;;7.02;48.04;102816.41;6127919;22;102382;-56
2023/02/09 03:34:25;;;;;;;6.97;3.20;;;6.10;94.10;;;7.03;44.82;102818.19;6153607;22;97280;-59
2023/02/09 03:36:54;;;;;;;5.27;3.33;;;6.10;94.70;;;6.90;46.75;102821.50;6157476;22;96968;-59
2023/02/09 03:39:21;;;;;;;7.50;3.73;;;6.00;94.20;;;6.74;46.17;102837.03;6126190;22;97157;-57
2023/02/09 03:41:47;;;;;;;5.67;3.50;;;5.80;94.60;;;6.65;41.61;102826.38;6128371;22;96858;-62
2023/02/09 03:44:25;;;;;;;7.63;2.80;;;5.90;93.80;;;6.43;42.95;102825.19;6125727;22;97745;-58
2023/02/09 03:46:56;;;;;;;6.90;3.70;;;5.60;94.20;;;6.25;42.58;102820.53;6141479;22;97306;-56
2023/02/09 03:49:23;;;;;;;4.47;3.03;;;5.50;94.70;;;6.40;49.45;102813.78;6151699;22;97180;-58
2023/02/09 03:51:49;;;;;;;5.73;2.87;;;5.50;95.80;;;6.42;46.48;102817.31;6129374;22;100484;-58
2023/02/09 03:54:14;;;;;;;10.60;5.37;;;5.50;94.70;;;6.25;43.81;102809.19;6151905;22;98961;-62
2023/02/09 03:56:40;;;;;;;6.57;3.47;;;5.40;94.80;;;6.20;41.96;102811.69;6155593;22;98916;-63
2023/02/09 03:59:06;;;;;;;7.20;3.47;;;5.40;94.50;;;6.12;43.21;102810.72;6155502;22;108438;-61
2023/02/09 04:01:32;;;;;;;5.93;4.10;;;5.40;95.10;;;6.28;47.54;102816.19;6152309;22;97765;-58
2023/02/09 04:04:00;;;;;;;9.30;3.67;;;5.40;96.60;;;6.40;45.91;102798.94;6155701;22;97474;-59
2023/02/09 04:06:31;;;;;;;4.33;2.30;;;5.50;95.70;;;6.54;49.60;102807.00;6152318;22;97401;-57
2023/02/09 04:09:01;;;;;;;5.93;3.47;;;5.50;96.30;;;6.46;43.70;102803.38;6127994;22;97326;-62
2023/02/09 04:11:27;;;;;;;9.00;3.60;;;5.50;95.30;;;6.33;44.75;102791.81;6126178;22;97383;-63
2023/02/09 04:13:53;;;;;;;4.90;3.23;;;5.50;94.60;;;6.16;43.89;102796.78;6156086;22;97192;-56
2023/02/09 04:16:20;;;;;;;4.77;2.63;;;5.30;93.90;;;6.23;46.13;102801.28;6153225;22;97111;-56
2023/02/09 04:18:46;;;;;;;5.70;2.97;;;5.40;95.20;;;6.11;43.66;102790.59;6156328;22;97242;-60
2023/02/09 04:21:12;;;;;;;5.27;2.50;;;5.30;95.40;;;6.26;49.19;102793.47;6149695;22;105890;-60
2023/02/09 04:23:38;;;;;;;15.63;7.93;;;5.40;96.00;;;5.96;41.99;102795.59;6155257;22;111851;-54
2023/02/09 04:26:04;;;;;;;9.10;4.37;;;5.20;94.70;;;5.94;48.41;102787.69;6129716;22;101929;-53
2023/02/09 04:28:30;;;;;;;8.03;3.53;;;5.10;95.50;;;6.02;46.44;102789.56;6125630;22;97315;-55
2023/02/09 04:30:56;;;;;;;4.87;2.73;;;5.20;95.40;;;5.92;46.71;102788.50;6154544;22;97318;-59
2023/02/09 04:33:24;;;;;;;3.60;1.77;;;5.10;95.40;;;6.17;51.04;102781.94;6152112;22;96836;-58
2023/02/09 04:35:51;;;;;;;3.37;2.50;;;5.30;97.20;;;6.49;49.46;102783.31;6156632;22;97007;-57
2023/02/09 04:38:19;;;;;;;4.33;3.90;;;5.60;96.90;;;6.55;48.46;102777.31;6151201;22;97208;-59
2023/02/09 04:40:50;;;;;;;4.77;2.57;;;5.70;95.30;;;6.49;45.78;102777.19;6155952;22;97831;-58
2023/02/09 04:43:16;;;;;;;9.70;3.57;;;5.60;94.90;;;6.39;40.76;102772.69;6124151;22;97514;-58
2023/02/09 04:45:42;;;;;;;6.23;3.33;;;5.50;94.70;;;6.58;47.54;102777.34;6128749;22;97132;-60
2023/02/09 04:48:13;;;;;;;5.83;3.03;;;5.60;95.40;;;6.82;48.52;102780.31;6155537;22;97003;-59
2023/02/09 04:50:39;;;;;;;7.63;3.10;;;5.80;97.20;;;6.64;41.73;102769.53;6150247;22;101660;-60
2023/02/09 04:53:05;;;;;;;7.23;3.37;;;5.70;95.10;;;6.77;45.04;102766.22;6155478;22;97185;-54
2023/02/09 04:55:31;;;;;;;6.33;3.60;;;5.80;94.90;;;6.55;42.42;102764.19;6150516;22;105145;-54
2023/02/09 05:00:41;;;;;;;5.53;3.37;;;5.70;93.90;;;6.54;42.58;102767.69;6151191;22;101373;-58
2023/02/09 05:03:07;;;;;;;3.37;2.00;;;5.70;94.10;;;6.83;48.98;102766.34;6127678;22;107480;-58
2023/02/09 05:05:33;;;;;;;5.70;2.87;;;5.80;97.80;;;6.86;42.50;102757.63;6150493;22;97302;-54
2023/02/09 05:07:59;;;;;;;5.83;3.73;;;5.90;94.10;;;6.88;48.09;102763.75;6129278;22;97614;-58
2023/02/09 05:10:25;;;;;;;8.17;3.47;;;5.90;95.20;;;6.96;44.70;102758.63;6150838;22;97648;-56
2023/02/09 05:12:51;;;;;;;8.17;3.20;;;6.00;94.50;;;7.03;48.75;102770.94;6155606;22;96940;-58
2023/02/09 05:15:17;;;;;;;8.57;3.47;;;6.00;95.20;;;7.05;45.56;102754.34;6150762;22;97080;-58
2023/02/09 05:17:43;;;;;;;4.67;2.33;;;6.00;94.20;;;7.15;49.45;102750.97;6157307;22;97139;-58
2023/02/09 05:20:09;;;;;;;4.97;2.60;;;6.00;96.40;;;7.40;49.61;102752.16;6154942;22;113274;-58
2023/02/09 05:22:35;;;;;;;8.30;3.20;;;6.30;97.00;;;7.39;47.73;102753.00;6124036;22;100889;-61
2023/02/09 05:25:01;;;;;;;6.93;3.23;;;6.30;95.00;;;7.42;49.36;102755.66;6155415;22;104424;-61
2023/02/09 05:27:26;;;;;;;4.23;2.93;;;6.30;96.30;;;7.53;48.31;102752.28;6126524;22;97092;-61
2023/02/09 05:29:52;;;;;;;7.70;2.93;;;6.40;95.70;;;7.49;47.01;102753.09;6156526;22;97293;-60
2023/02/09 05:32:18;;;;;;;7.37;4.07;;;6.30;95.20;;;7.36;41.61;102759.94;6147177;22;97095;-60
2023/02/09 05:34:44;;;;;;;5.37;2.00;;;6.30;93.20;;;7.36;48.50;102755.56;6157502;22;102549;-61
2023/02/09 05:37:09;;;;;;;9.03;3.50;;;6.20;96.40;;;7.26;40.77;102759.00;6154608;22;97495;-59
2023/02/09 05:39:35;;;;;;;4.60;2.90;;;6.20;93.60;;;7.22;44.11;102758.91;6158528;22;97400;-60
2023/02/09 05:42:16;;;;;;;6.87;3.53;;;6.10;94.20;;;7.21;43.11;102755.41;6158137;22;102692;-58
2023/02/09 05:44:48;;;;;;;11.33;4.60;;;6.10;94.60;;;7.09;45.27;102765.78;6154125;22;97086;-59
2023/02/09 05:47:17;;;;;;;6.33;3.13;;;6.00;93.80;;;6.94;45.88;102765.56;6098255;22;97528;-60
2023/02/09 05:49:44;;;;;;;7.50;4.03;;;5.90;94.70;;;6.81;45.70;102770.69;6156940;22;97526;-60
2023/02/09 05:52:10;;;;;;;9.80;3.87;;;5.80;94.40;;;6.66;41.47;102759.97;6153210;22;97328;-61
2023/02/09 05:54:36;;;;;;;9.07;4.23;;;5.70;94.60;;;6.54;46.16;102765.06;6157720;22;96657;-60
2023/02/09 05:57:03;;;;;;;3.07;2.57;;;5.50;94.20;;;6.23;42.16;102759.34;6156853;22;97243;-57
2023/02/09 05:59:28;;;;;;;5.87;3.20;;;5.40;94.70;;;6.23;43.67;102769.84;6155031;22;98613;-53
2023/02/09 06:01:54;;;;;;;9.40;4.43;;;5.40;95.10;;;6.06;42.09;102771.28;6158600;22;97566;-59
2023/02/09 06:04:21;;;;;;;8.43;3.70;;;5.20;94.60;;;6.04;42.04;102772.13;6112671;22;97045;-60
2023/02/09 06:06:46;;;;;;;8.80;4.87;;;5.20;95.00;;;5.84;41.13;102771.75;6157903;22;97146;-57
2023/02/09 06:09:12;;;;;;;6.97;3.33;;;5.10;94.60;;;5.69;43.59;102775.00;6125692;22;98018;-54
2023/02/09 06:11:38;;;;;;;5.00;3.20;;;4.90;95.40;;;5.76;47.94;102766.38;6156624;22;97364;-58
2023/02/09 06:14:04;;;;;;;11.20;3.97;;;4.90;96.70;;;5.98;50.17;102770.28;6129761;22;99891;-62
2023/02/09 06:16:30;;;;;;;8.43;3.73;;;5.10;96.70;;;6.00;44.70;102771.19;6154538;22;96878;-58
2023/02/09 06:18:56;;;;;;;8.87;3.40;;;5.10;96.00;;;6.15;49.92;102765.31;6158362;22;97439;-52
2023/02/09 06:21:22;;;;;;;7.00;3.70;;;5.20;96.50;;;6.33;46.59;102754.22;6154691;22;97267;-52
2023/02/09 06:23:47;;;;;;;6.67;2.40;;;5.40;97.00;;;6.51;50.81;102750.16;6158256;22;97265;-54
2023/02/09 06:26:16;;;;;;;8.00;4.20;;;5.50;99.00;;;6.76;49.79;102756.59;6153472;22;97410;-57
2023/02/09 06:28:42;;;;;;;4.93;2.87;;;5.70;97.00;;;7.01;50.01;102751.69;6158703;22;97274;-57
2023/02/09 06:31:09;;;;;;;8.43;4.20;;;5.90;98.60;;;7.10;46.59;102752.69;6129123;22;97812;-58
2023/02/09 06:33:37;;;;;;;7.33;4.00;;;6.10;95.20;;;6.92;41.88;102756.81;6153644;22;97001;-61
2023/02/09 06:36:05;;;;;;;4.97;2.67;;;6.00;95.20;;;6.92;50.17;102757.69;6157250;22;97248;-51
2023/02/09 06:38:32;;;;;;;8.07;3.90;;;5.80;98.10;;;7.02;43.22;102753.44;6154648;22;97108;-54
2023/02/09 06:40:58;;;;;;;7.97;4.33;;;6.00;95.00;;;7.18;46.80;102755.38;6130746;22;97533;-58
2023/02/09 06:43:25;;;;;;;9.20;3.33;;;6.10;96.20;;;7.32;48.92;102756.41;6153744;22;97941;-57
2023/02/09 06:45:50;;;;;;;5.93;3.37;;;6.30;97.50;;;7.30;44.44;102755.53;6130227;22;97546;-59
2023/02/09 06:48:16;;;;;;;3.50;1.87;;;6.30;94.90;;;7.51;49.43;102738.22;6153950;22;97546;-53
2023/02/09 06:50:42;;;;;;;8.93;3.50;;;6.50;99.90;;;7.65;45.04;102749.75;6157122;22;111899;-54
2023/02/09 06:53:08;;;;;;;8.13;4.20;;;6.70;95.20;;;7.38;39.05;102767.00;6156621;22;101355;-58
2023/02/09 06:55:34;;;;;;;5.60;3.93;;;6.60;92.70;;;7.25;44.17;102767.72;6126525;22;97463;-59
2023/02/09 06:58:00;;;;;;;7.27;4.13;;;6.30;93.80;;;7.02;41.26;102758.69;6157024;22;97179;-57
2023/02/09 07:00:26;;;;;;;7.30;3.73;;;6.10;93.40;;;6.83;44.82;102760.22;6154401;22;97224;-54
2023/02/09 07:02:52;;;;;;;6.70;3.13;;;5.80;93.70;;;6.70;46.98;102769.66;6127972;22;97277;-61
2023/02/09 07:05:18;;;;;;;12.13;4.60;;;5.70;95.00;;;6.52;42.25;102766.78;6144345;22;97425;-55
2023/02/09 07:07:46;;;;;;;8.77;4.40;;;5.70;93.80;;;6.47;47.02;102778.91;6102796;22;97826;-61
2023/02/09 07:10:15;;;;;;;6.00;3.57;;;5.60;95.00;;;6.46;40.78;102787.66;6148456;22;97629;-58
2023/02/09 07:12:42;;;;;;;8.03;4.20;;;5.60;94.20;;;6.22;45.83;102783.81;6155443;22;97157;-55
2023/02/09 07:15:09;;;;;;;7.20;4.23;;;5.40;95.10;;;5.96;41.49;102790.34;6154325;22;97232;-57
2023/02/09 07:17:36;;;;;;;9.13;4.30;;;5.30;95.00;;;5.99;47.26;102800.00;6151553;22;101462;-56
2023/02/09 07:20:03;;;;;;;10.33;4.37;;;5.20;95.60;;;5.97;48.58;102797.34;6156272;22;97194;-56
2023/02/09 07:22:29;;;;;;;6.63;3.87;;;5.20;95.90;;;5.81;45.32;102814.50;6151517;22;97528;-58
2023/02/09 07:24:55;;;;;;;6.60;3.87;;;5.10;95.20;;;5.67;42.17;102802.88;6155427;22;97363;-59
2023/02/09 07:27:21;;;;;;;7.90;4.27;;;5.00;95.20;;;5.53;43.29;102807.88;6125893;22;97801;-58
2023/02/09 07:29:47;;;;;;;6.13;3.43;;;4.90;95.90;;;5.40;42.58;102805.84;6157436;22;97129;-51
2023/02/09 07:32:13;;;;;;;9.87;4.53;;;4.80;95.90;;;5.49;45.28;102815.59;6150715;22;97226;-61
2023/02/09 07:34:39;;;;;;;8.43;4.83;;;4.80;95.90;;;5.60;45.15;102812.34;6155648;22;96927;-58
2023/02/09 07:37:05;;;;;;;9.47;4.77;;;4.90;96.50;;;5.65;48.01;102820.31;6128991;22;109548;-61
2023/02/09 07:39:31;;;;;;;7.37;3.23;;;4.90;96.20;;;5.49;49.77;102824.34;6124014;22;97173;-59
2023/02/09 07:41:57;;;;;;;7.67;3.87;;;4.80;96.60;;;5.59;46.16;102815.81;6156773;22;97113;-59
2023/02/09 07:44:24;;;;;;;4.70;2.23;;;4.90;96.90;;;5.87;53.45;102816.34;6152271;22;97129;-58
2023/02/09 07:46:50;;;;;;;7.37;4.63;;;5.00;99.90;;;6.10;49.57;102811.53;6128878;22;97633;-53
2023/02/09 07:49:16;;;;;;;5.37;3.40;;;5.30;97.60;;;6.14;47.79;102795.88;6126130;22;97493;-55
2023/02/09 07:51:42;;;;;;;8.80;4.53;;;5.30;96.40;;;6.40;46.71;102804.19;6156827;22;103246;-55
2023/02/09 07:54:12;;;;;;;11.17;4.60;;;5.60;97.00;;;6.68;49.16;102800.22;6156014;22;97322;-60
2023/02/09 07:56:38;;;;;;;7.23;4.60;;;5.80;98.50;;;6.69;43.15;102795.88;6152032;22;101838;-58
2023/02/09 07:59:05;;;;;;;10.63;4.73;;;5.90;95.70;;;6.94;45.75;102791.81;6149054;22;97414;-61
2023/02/09 08:01:32;;;;;;;3.47;2.70;;;6.10;95.80;;;7.12;49.84;102781.56;6153741;22;97310;-63
2023/02/09 08:03:58;;;;;;;8.40;4.20;;;6.20;99.90;;;7.33;48.16;102787.06;6159980;22;96810;-59
2023/02/09 08:06:52;;;;;;;7.47;3.20;;;6.50;97.10;;;7.68;49.50;102778.69;6126999;22;98342;-59
2023/02/09 08:09:17;;;;;;;7.43;3.67;;;6.70;99.90;;;7.84;47.31;102790.22;6120159;22;97497;-55
2023/02/09 08:11:55;;;;;;;3.73;1.83;;;7.00;98.10;;;8.07;41.92;102784.28;6154955;22;97026;-60
2023/02/09 08:14:50;;;;;;;9.97;4.77;;;7.40;97.80;;;7.94;44.52;102798.19;6126704;22;96641;-58
2023/02/09 08:17:18;;;;;;;9.73;4.47;;;7.20;93.70;;;7.63;37.87;102806.63;6125992;22;106391;-61
2023/02/09 08:19:47;;;;;;;5.13;2.80;;;7.00;92.40;;;7.50;46.75;102813.50;6154433;22;99482;-60
2023/02/09 08:22:13;;;;;;;9.23;4.57;;;6.70;96.40;;;7.34;45.29;102816.81;6101770;22;97247;-57
2023/02/09 08:24:39;;;;;;;4.23;3.03;;;6.60;95.30;;;7.41;43.38;102811.69;6157547;22;96937;-61
2023/02/09 08:27:05;;;;;;;5.27;3.20;;;6.70;95.30;;;7.67;46.49;102805.84;6129645;22;98188;-62
2023/02/09 08:29:31;;;;;;;9.93;4.53;;;6.90;94.10;;;7.42;42.21;102808.19;6101501;22;101622;-60
2023/02/09 08:31:57;;;;;;;5.33;2.77;;;6.70;93.50;;;7.94;48.49;102808.72;6155266;22;97470;-56
2023/02/09 08:34:23;;;;;;;7.60;4.27;;;7.10;97.20;;;8.09;42.14;102817.59;6125336;22;97121;-59
2023/02/09 08:36:49;;;;;;;12.80;5.27;;;7.30;93.50;;;7.84;44.20;102804.25;6155072;22;97095;-60
2023/02/09 08:39:14;;;;;;;3.43;1.90;;;7.10;94.10;;;7.89;47.45;102810.41;6151159;22;100418;-61
2023/02/09 08:41:40;;;;;;;8.03;3.83;;;7.00;95.40;;;7.58;38.72;102810.97;6157658;22;97003;-60
2023/02/09 08:44:06;;;;;;;5.30;2.93;;;7.00;92.60;;;8.11;47.17;102813.25;6155960;22;97255;-57
2023/02/09 08:46:34;;;;;;;8.00;4.43;;;7.30;98.20;;;8.01;38.83;102812.28;6149794;22;114405;-57
2023/02/09 08:49:00;;;;;;;5.43;2.97;;;7.40;93.10;;;7.99;46.01;102828.06;6156880;22;96998;-63
2023/02/09 08:51:25;;;;;;;3.80;2.33;;;7.30;95.20;;;8.17;47.71;102827.31;6153127;22;105691;-55
2023/02/09 08:53:51;;;;;;;10.33;3.93;;;7.50;99.90;;;8.43;45.13;102819.69;6158053;22;97463;-62
2023/02/09 08:56:19;;;;;;;6.93;4.13;;;7.90;96.70;;;8.85;46.34;102828.75;6155176;22;97319;-53
2023/02/09 08:58:44;;;;;;;11.47;5.23;;;8.30;96.20;;;8.87;40.22;102838.41;6157745;22;97254;-60
2023/02/09 09:01:12;;;;;;;8.10;4.30;;;8.30;90.60;;;8.60;39.10;102841.72;6151363;22;97209;-56
2023/02/09 09:03:38;;;;;;;11.20;5.13;;;8.00;90.80;;;8.18;36.62;102859.75;6130317;22;97129;-61
2023/02/09 09:06:06;;;;;;;7.83;4.10;;;7.60;90.80;;;7.82;37.03;102850.66;6155733;22;97632;-60
2023/02/09 09:08:34;;;;;;;7.30;3.77;;;7.30;91.20;;;8.13;46.85;102856.22;6151237;22;97170;-61
2023/02/09 09:11:00;;;;;;;6.97;3.93;;;7.40;95.70;;;7.99;37.59;102838.56;6158722;22;97522;-60
2023/02/09 09:13:27;;;;;;;7.37;4.03;;;7.50;91.60;;;7.86;38.69;102844.56;6154196;22;96990;-60
2023/02/09 09:15:54;;;;;;;9.20;4.17;;;7.30;92.50;;;7.51;37.81;102848.53;6158250;22;97347;-62
2023/02/09 09:18:21;;;;;;;11.90;5.43;;;7.00;91.80;;;7.18;38.13;102851.63;6153189;22;98537;-60
2023/02/09 09:20:48;;;;;;;9.97;5.27;;;6.80;92.40;;;7.07;41.44;102854.09;6159402;22;97518;-59
2023/02/09 09:23:14;;;;;;;10.43;5.17;;;6.60;92.50;;;6.79;38.36;102845.84;6155005;22;97042;-61
2023/02/09 09:25:41;;;;;;;8.27;4.10;;;6.40;92.40;;;6.70;39.66;102856.22;6130009;22;97948;-57
2023/02/09 09:28:07;;;;;;;10.43;4.73;;;6.30;93.20;;;6.57;40.68;102856.88;6159204;22;97105;-61
2023/02/09 09:30:33;;;;;;;9.47;5.13;;;6.20;93.60;;;6.49;40.66;102866.34;6154445;22;96885;-58
2023/02/09 09:32:59;;;;;;;6.10;2.87;;;6.20;94.10;;;6.54;46.68;102864.69;6158345;22;97026;-58
2023/02/09 09:35:26;;;;;;;9.57;5.57;;;6.20;96.40;;;6.49;41.99;102876.84;6154371;22;97759;-60
2023/02/09 09:37:56;;;;;;;3.50;2.53;;;6.20;93.80;;;6.77;49.83;102868.53;6157268;22;97301;-59
2023/02/09 09:40:30;;;;;;;13.57;6.00;;;6.40;98.90;;;6.81;39.20;102864.25;6153734;22;97330;-55
2023/02/09 09:43:00;;;;;;;10.07;4.63;;;6.50;93.30;;;7.11;43.58;102869.06;6133047;22;97090;-60
2023/02/09 09:45:29;;;;;;;10.27;5.17;;;6.70;94.90;;;7.27;41.85;102868.38;6154409;22;97351;-52
2023/02/09 09:47:56;;;;;;;8.87;4.53;;;6.80;93.80;;;7.62;42.21;102873.19;6158471;22;97586;-58
2023/02/09 09:50:27;;;;;;;4.43;2.73;;;7.10;93.90;;;8.46;47.43;102876.69;6127968;22;97063;-60
2023/02/09 09:53:03;;;;;;;12.37;5.30;;;7.90;99.90;;;8.48;39.83;102881.09;6130681;22;98136;-63
2023/02/09 09:55:31;;;;;;;11.43;6.20;;;8.40;91.70;;;8.53;41.54;102871.47;6152620;22;97944;-61
2023/02/09 09:58:04;;;;;;;12.17;4.40;;;8.20;91.80;;;8.67;39.34;102878.59;6131556;22;96816;-59
2023/02/09 10:00:38;;;;;;;5.70;3.50;;;8.30;92.00;;;8.63;43.88;102878.59;6127694;22;97250;-57
2023/02/09 10:03:17;;;;;;;4.77;2.53;;;8.20;92.70;;;8.77;43.44;102886.56;6157933;22;97135;-61
2023/02/09 10:05:52;;;;;;;6.73;3.83;;;8.30;93.20;;;8.70;45.06;102878.66;6155133;22;101483;-60
2023/02/09 10:08:52;;;;;;;10.47;5.30;;;8.20;92.90;;;8.53;36.81;102884.63;6156329;22;97213;-59
2023/02/09 10:11:31;;;;;;;8.33;4.17;;;8.10;90.80;;;8.53;44.67;102895.16;6127330;22;97147;-60
2023/02/09 10:13:57;;;;;;;7.17;4.00;;;8.00;92.10;;;8.31;41.19;102894.06;6132468;22;96628;-60
2023/02/09 10:16:33;;;;;;;9.07;4.20;;;7.80;91.50;;;8.31;44.45;102883.56;6151386;22;97260;-57
2023/02/09 10:19:21;;;;;;;7.33;3.93;;;7.80;93.30;;;8.76;45.10;102874.28;6163447;22;97146;-61
2023/02/09 10:21:48;;;;;;;8.20;4.10;;;8.30;94.10;;;8.60;39.00;102875.94;6158609;22;97379;-56
2023/02/09 10:24:22;;;;;;;4.93;2.47;;;8.20;91.20;;;9.18;45.37;102865.78;6132256;22;97412;-60
2023/02/09 10:27:14;;;;;;;7.17;3.10;;;8.70;99.30;;;9.64;41.45;102879.13;6163629;22;96790;-55
2023/02/09 10:29:40;;;;;;;9.80;4.77;;;9.40;92.20;;;9.68;36.25;102877.38;6113167;22;101568;-59
2023/02/09 10:32:36;;;;;;;10.53;5.43;;;9.50;90.20;;;9.45;39.26;102885.22;6162897;22;97309;-58
2023/02/09 10:35:22;;;;;;;8.33;4.47;;;9.10;89.80;;;9.50;37.69;102894.00;6131317;22;97045;-60
2023/02/09 10:37:57;;;;;;;8.43;4.90;;;9.20;90.60;;;9.52;35.82;102893.16;6126997;22;100538;-61
2023/02/09 10:40:30;;;;;;;6.53;3.60;;;9.20;90.00;;;9.49;42.01;102887.88;6126796;22;98216;-60
2023/02/09 10:43:06;;;;;;;9.13;4.93;;;9.00;90.90;;;9.45;35.99;102879.94;6159237;22;97165;-61